CJQ8 weather

Maryfield Aerodrome
Maryfield, Saskatchewan, Canada

Public forecast

Using degrees Celsius for public forecast. Weather courtesy of forecast.io.

METAR (pilot weather report)

Closest report is Brandon Municipal Airport, 60.6 nm (112.2 km) E. Retrieved 2019/07/17 05:00 UTC (45 minutes ago):

CYBR 170500Z 09006KT 15SM FEW050 BKN120 OVC250 18/17 A2988 RMK SC1AC5CI2 SLP120 DENSITY ALT 2100FT

TAF (pilot weather forecast)

Forecast is more than 12 hours old.

Closest forecast is Brandon Municipal Airport, 60.6 nm (112.2 km) E. Retrieved 2019/07/16 00:48 UTC (1 day ago):

TAF TAF CYBR 162345Z 1700/1712 VRB03KT P6SM SCT050 BKN250 TEMPO 1700/1703 P6SM -SHRA PROB30 1700/1703 VRB15G25KT 4SM TSRA BKN040CB FM170300 08006KT P6SM SCT050 FM170800 11006KT P6SM FEW010 BKN050 TEMPO 1708/1712 SCT008 BKN040 RMK NXT FCST BY 170600Z